createdAt,value
2023-03-22T00:00:15.498Z,100.00
2023-03-22T00:02:43.241Z,100.00
2023-03-22T00:05:11.001Z,100.00
2023-03-22T00:07:58.977Z,100.00
2023-03-22T00:10:29.003Z,100.00
2023-03-22T00:12:57.225Z,100.00
2023-03-22T00:15:24.656Z,100.00
2023-03-22T00:17:53.079Z,100.00
2023-03-22T00:20:23.721Z,100.00
2023-03-22T00:22:51.097Z,100.00
2023-03-22T00:25:21.294Z,100.00
2023-03-22T00:27:48.922Z,100.00
2023-03-22T00:30:16.562Z,100.00
2023-03-22T00:32:45.075Z,100.00
2023-03-22T00:35:12.984Z,100.00
2023-03-22T00:37:40.370Z,100.00
2023-03-22T00:40:11.250Z,100.00
2023-03-22T00:42:40.371Z,100.00
2023-03-22T00:45:11.320Z,100.00
2023-03-22T00:47:39.311Z,100.00
2023-03-22T00:50:07.853Z,100.00
2023-03-22T00:52:35.509Z,100.00
2023-03-22T00:55:03.290Z,100.00
2023-03-22T00:57:31.021Z,100.00
2023-03-22T00:59:58.535Z,100.00
2023-03-22T01:02:29.749Z,100.00
2023-03-22T01:04:57.926Z,100.00
2023-03-22T01:07:28.219Z,100.00
2023-03-22T01:09:55.615Z,100.00
2023-03-22T01:12:23.239Z,100.00
2023-03-22T01:14:50.808Z,100.00
2023-03-22T01:17:19.841Z,100.00
2023-03-22T01:19:47.260Z,100.00
2023-03-22T01:22:14.762Z,100.00
2023-03-22T01:24:44.240Z,100.00
2023-03-22T01:27:11.996Z,100.00
2023-03-22T01:29:39.342Z,100.00
2023-03-22T01:32:06.906Z,100.00
2023-03-22T01:34:34.602Z,100.00
2023-03-22T01:37:02.063Z,100.00
2023-03-22T01:39:29.732Z,100.00
2023-03-22T01:41:57.184Z,100.00
2023-03-22T01:44:24.587Z,100.00
2023-03-22T01:46:52.186Z,100.00
2023-03-22T01:49:34.146Z,100.00
2023-03-22T01:52:06.437Z,100.00
2023-03-22T01:54:50.288Z,100.00
2023-03-22T01:57:18.565Z,100.00
2023-03-22T01:59:47.539Z,100.00
2023-03-22T02:02:22.167Z,100.00
2023-03-22T02:04:58.234Z,100.00
2023-03-22T02:07:28.642Z,100.00
2023-03-22T02:10:23.396Z,100.00
2023-03-22T02:13:14.045Z,100.00
2023-03-22T02:16:14.573Z,100.00
2023-03-22T02:18:57.599Z,100.00
2023-03-22T02:22:02.398Z,100.00
2023-03-22T02:25:05.415Z,100.00
2023-03-22T02:27:41.706Z,100.00
2023-03-22T02:30:33.857Z,100.00
2023-03-22T02:33:35.945Z,100.00
2023-03-22T02:36:19.951Z,100.00
2023-03-22T02:38:59.635Z,100.00
2023-03-22T02:41:33.173Z,100.00
2023-03-22T02:44:17.688Z,100.00
2023-03-22T02:46:52.821Z,100.00
2023-03-22T02:49:36.414Z,100.00
2023-03-22T02:52:17.697Z,100.00
2023-03-22T02:55:09.878Z,100.00
2023-03-22T02:57:54.518Z,100.00
2023-03-22T03:00:22.493Z,100.00
2023-03-22T03:02:55.147Z,100.00
2023-03-22T03:05:26.229Z,100.00
2023-03-22T03:07:59.726Z,100.00
2023-03-22T03:10:33.418Z,100.00
2023-03-22T03:13:01.248Z,100.00
2023-03-22T03:15:28.956Z,100.00
2023-03-22T03:18:19.206Z,100.00
2023-03-22T03:21:05.078Z,100.00
2023-03-22T03:23:54.973Z,100.00
2023-03-22T03:26:52.815Z,100.00
2023-03-22T03:29:24.163Z,100.00
2023-03-22T03:32:15.958Z,100.00
2023-03-22T03:34:49.764Z,100.00
2023-03-22T03:37:22.897Z,100.00
2023-03-22T03:39:59.007Z,100.00
2023-03-22T03:42:28.591Z,100.00
2023-03-22T03:44:56.643Z,100.00
2023-03-22T03:47:26.082Z,100.00
2023-03-22T03:49:53.904Z,100.00
2023-03-22T03:52:24.636Z,100.00
2023-03-22T03:54:52.774Z,100.00
2023-03-22T03:57:22.309Z,100.00
2023-03-22T03:59:50.278Z,100.00
2023-03-22T04:02:17.721Z,100.00
2023-03-22T04:04:45.401Z,100.00
2023-03-22T04:07:12.911Z,100.00
2023-03-22T04:09:40.627Z,100.00
2023-03-22T04:12:12.864Z,100.00
2023-03-22T04:14:41.839Z,100.00
2023-03-22T04:17:09.906Z,100.00
2023-03-22T04:19:38.005Z,100.00
2023-03-22T04:22:05.957Z,100.00
2023-03-22T04:24:33.532Z,100.00
2023-03-22T04:27:01.066Z,100.00
2023-03-22T04:29:32.382Z,100.00
2023-03-22T04:32:00.997Z,100.00
2023-03-22T04:34:28.742Z,100.00
2023-03-22T04:36:56.288Z,100.00
2023-03-22T04:39:23.840Z,100.00
2023-03-22T04:41:51.245Z,100.00
2023-03-22T04:44:20.450Z,100.00
2023-03-22T04:46:47.956Z,100.00
2023-03-22T04:49:15.974Z,100.00
2023-03-22T04:51:43.313Z,100.00
2023-03-22T04:54:10.727Z,100.00
2023-03-22T04:56:38.061Z,100.00
2023-03-22T04:59:05.499Z,100.00
2023-03-22T05:01:40.814Z,100.00
2023-03-22T05:04:08.916Z,100.00
2023-03-22T05:06:36.457Z,100.00
2023-03-22T05:09:08.187Z,100.00
2023-03-22T05:11:37.144Z,100.00
2023-03-22T05:14:04.877Z,100.00
2023-03-22T05:16:33.528Z,100.00
2023-03-22T05:19:02.503Z,100.00
2023-03-22T05:21:36.728Z,100.00
2023-03-22T05:24:04.393Z,100.00
2023-03-22T05:26:31.853Z,100.00
2023-03-22T05:28:59.574Z,100.00
2023-03-22T05:31:28.833Z,100.00
2023-03-22T05:34:04.146Z,100.00
2023-03-22T05:36:36.626Z,100.00
2023-03-22T05:39:04.680Z,100.00
2023-03-22T05:41:36.379Z,100.00
2023-03-22T05:44:05.158Z,100.00
2023-03-22T05:46:36.581Z,100.00
2023-03-22T05:49:03.988Z,100.00
2023-03-22T05:51:32.247Z,100.00
2023-03-22T05:54:00.488Z,100.00
2023-03-22T05:56:27.907Z,100.00
2023-03-22T05:58:58.268Z,100.00
2023-03-22T06:01:25.891Z,100.00
2023-03-22T06:03:53.340Z,100.00
2023-03-22T06:06:20.715Z,100.00
2023-03-22T06:08:48.711Z,100.00
2023-03-22T06:11:22.896Z,100.00
2023-03-22T06:13:50.490Z,100.00
2023-03-22T06:16:17.976Z,100.00
2023-03-22T06:18:46.844Z,100.00
2023-03-22T06:21:14.452Z,100.00
2023-03-22T06:23:43.701Z,100.00
2023-03-22T06:26:11.623Z,100.00
2023-03-22T06:28:39.188Z,100.00
2023-03-22T06:31:08.296Z,100.00
2023-03-22T06:33:37.736Z,100.00
2023-03-22T06:36:05.556Z,100.00
2023-03-22T06:38:33.081Z,100.00
2023-03-22T06:41:00.497Z,100.00
2023-03-22T06:43:27.918Z,100.00
2023-03-22T06:45:57.388Z,100.00
2023-03-22T06:48:24.933Z,100.00
2023-03-22T06:50:52.305Z,100.00
2023-03-22T06:53:20.905Z,100.00
2023-03-22T06:55:48.309Z,100.00
2023-03-22T06:58:15.693Z,100.00
2023-03-22T07:00:43.365Z,100.00
2023-03-22T07:03:10.796Z,100.00
2023-03-22T07:05:39.831Z,100.00
2023-03-22T07:08:07.482Z,100.00
2023-03-22T07:10:38.516Z,100.00
2023-03-22T07:13:07.023Z,100.00
2023-03-22T07:15:35.177Z,100.00
2023-03-22T07:18:08.636Z,100.00
2023-03-22T07:20:41.639Z,100.00
2023-03-22T07:23:10.945Z,100.00
2023-03-22T07:25:38.440Z,100.00
2023-03-22T07:28:07.161Z,100.00
2023-03-22T07:30:37.593Z,100.00
2023-03-22T07:33:10.664Z,100.00
2023-03-22T07:35:38.617Z,97.12
2023-03-22T07:38:06.671Z,95.76
2023-03-22T07:40:34.607Z,94.89
2023-03-22T07:43:02.147Z,93.76
2023-03-22T07:45:29.664Z,94.47
2023-03-22T07:48:17.761Z,91.50
2023-03-22T07:50:45.484Z,90.88
2023-03-22T07:53:13.372Z,89.97
2023-03-22T07:55:42.473Z,93.03
2023-03-22T07:58:10.659Z,89.92
2023-03-22T08:00:38.630Z,89.06
2023-03-22T08:03:07.133Z,87.86
2023-03-22T08:05:35.508Z,86.02
2023-03-22T08:08:03.154Z,85.29
2023-03-22T08:10:32.964Z,82.75
2023-03-22T08:13:01.376Z,82.43
2023-03-22T08:15:28.779Z,80.78
2023-03-22T08:18:00.743Z,78.29
2023-03-22T08:20:28.173Z,77.52
2023-03-22T08:23:01.281Z,74.78
2023-03-22T08:25:29.735Z,76.25
2023-03-22T08:27:57.678Z,75.25
2023-03-22T08:30:26.132Z,77.05
2023-03-22T08:32:53.615Z,73.88
2023-03-22T08:35:22.239Z,70.98
2023-03-22T08:37:53.785Z,69.33
2023-03-22T08:40:23.126Z,67.83
2023-03-22T08:42:51.091Z,67.18
2023-03-22T08:45:18.715Z,65.57
2023-03-22T08:47:46.290Z,64.00
2023-03-22T08:50:13.858Z,63.77
2023-03-22T08:52:42.799Z,66.72
2023-03-22T08:55:10.571Z,65.06
2023-03-22T08:57:50.362Z,61.73
2023-03-22T09:00:19.212Z,62.58
2023-03-22T09:02:47.985Z,60.33
2023-03-22T09:05:15.621Z,62.68
2023-03-22T09:07:47.040Z,60.08
2023-03-22T09:10:15.216Z,61.39
2023-03-22T09:12:43.088Z,64.23
2023-03-22T09:15:41.893Z,60.76
2023-03-22T09:18:10.147Z,61.60
2023-03-22T09:20:38.433Z,58.60
2023-03-22T09:23:06.664Z,57.39
2023-03-22T09:25:34.333Z,57.19
2023-03-22T09:28:02.449Z,53.92
2023-03-22T09:30:32.378Z,53.96
2023-03-22T09:33:02.010Z,52.30
2023-03-22T09:35:30.087Z,52.94
2023-03-22T09:37:59.965Z,52.62
2023-03-22T09:40:30.896Z,51.04
2023-03-22T09:43:03.043Z,50.51
2023-03-22T09:45:39.822Z,50.94
2023-03-22T09:48:17.265Z,50.43
2023-03-22T09:50:48.370Z,49.65
2023-03-22T09:53:17.967Z,46.92
2023-03-22T09:56:17.486Z,47.35
2023-03-22T09:59:06.316Z,45.88
2023-03-22T10:01:48.351Z,48.43
2023-03-22T10:04:21.599Z,47.43
2023-03-22T10:06:59.943Z,49.45
2023-03-22T10:09:42.380Z,47.78
2023-03-22T10:12:32.304Z,47.13
2023-03-22T10:15:26.837Z,48.16
2023-03-22T10:17:57.570Z,48.31
2023-03-22T10:20:32.191Z,46.45
2023-03-22T10:23:03.278Z,48.32
2023-03-22T10:25:38.435Z,48.56
2023-03-22T10:28:21.214Z,49.09
2023-03-22T10:30:54.979Z,49.22
2023-03-22T10:33:50.260Z,47.82
2023-03-22T10:36:24.421Z,45.91
2023-03-22T10:39:00.712Z,43.44
2023-03-22T10:41:33.716Z,42.64
2023-03-22T10:44:02.859Z,41.83
2023-03-22T10:46:40.734Z,43.04
2023-03-22T10:49:17.597Z,44.76
2023-03-22T10:51:59.984Z,44.96
2023-03-22T10:54:28.074Z,43.63
2023-03-22T10:56:56.536Z,44.98
2023-03-22T10:59:52.734Z,45.87
2023-03-22T11:02:24.961Z,44.67
2023-03-22T11:04:57.070Z,45.94
2023-03-22T11:07:28.215Z,46.64
2023-03-22T11:10:24.036Z,44.23
2023-03-22T11:13:14.546Z,44.17
2023-03-22T11:15:52.881Z,43.85
2023-03-22T11:18:20.794Z,43.41
2023-03-22T11:21:07.448Z,42.64
2023-03-22T11:23:39.048Z,43.13
2023-03-22T11:26:10.377Z,43.17
2023-03-22T11:28:43.116Z,45.57
2023-03-22T11:31:21.304Z,43.88
2023-03-22T11:34:01.894Z,42.91
2023-03-22T11:36:30.410Z,42.38
2023-03-22T11:39:07.997Z,43.40
2023-03-22T11:41:37.845Z,42.25
2023-03-22T11:44:10.857Z,44.38
2023-03-22T11:46:48.751Z,43.01
2023-03-22T11:49:18.097Z,43.36
2023-03-22T11:51:53.186Z,42.85
2023-03-22T11:54:31.254Z,39.80
2023-03-22T11:57:03.964Z,43.65
2023-03-22T11:59:59.798Z,41.14
2023-03-22T12:02:32.609Z,40.85
2023-03-22T12:05:12.749Z,40.29
2023-03-22T12:07:41.774Z,41.57
2023-03-22T12:10:25.170Z,44.41
2023-03-22T12:12:59.997Z,43.85
2023-03-22T12:15:40.498Z,43.18
2023-03-22T12:18:48.944Z,41.00
2023-03-22T12:21:16.814Z,42.26
2023-03-22T12:23:44.849Z,40.49
2023-03-22T12:26:12.118Z,40.33
2023-03-22T12:29:06.171Z,38.75
2023-03-22T12:31:39.469Z,39.73
2023-03-22T12:34:14.806Z,39.68
2023-03-22T12:36:50.068Z,39.58
2023-03-22T12:39:30.492Z,38.84
2023-03-22T12:42:04.001Z,38.68
2023-03-22T12:44:40.431Z,37.66
2023-03-22T12:47:19.134Z,36.92
2023-03-22T12:49:54.175Z,36.36
2023-03-22T12:52:45.454Z,36.01
2023-03-22T12:55:34.966Z,35.74
2023-03-22T12:58:06.639Z,35.75
2023-03-22T13:00:40.807Z,35.39
2023-03-22T13:03:25.198Z,34.13
2023-03-22T13:06:05.142Z,33.21
2023-03-22T13:09:02.537Z,33.48
2023-03-22T13:11:32.117Z,33.99
2023-03-22T13:14:00.274Z,34.09
2023-03-22T13:17:06.831Z,33.54
2023-03-22T13:19:38.610Z,35.63
2023-03-22T13:22:22.238Z,35.89
2023-03-22T13:25:06.281Z,35.41
2023-03-22T13:27:37.978Z,35.29
2023-03-22T13:30:21.823Z,35.61
2023-03-22T13:33:09.951Z,36.95
2023-03-22T13:35:54.393Z,35.69
2023-03-22T13:38:22.432Z,35.56
2023-03-22T13:41:44.913Z,35.75
2023-03-22T13:44:27.022Z,35.07
2023-03-22T13:47:02.462Z,36.47
2023-03-22T13:49:53.410Z,36.40
2023-03-22T13:52:27.433Z,36.71
2023-03-22T13:54:57.677Z,37.02
2023-03-22T13:57:49.343Z,36.52
2023-03-22T14:00:36.416Z,36.93
2023-03-22T14:03:23.739Z,37.40
2023-03-22T14:06:10.939Z,36.59
2023-03-22T14:08:45.987Z,36.89
2023-03-22T14:11:20.802Z,36.37
2023-03-22T14:13:53.775Z,37.03
2023-03-22T14:16:46.034Z,37.23
2023-03-22T14:19:21.954Z,36.42
